Time;durP1;ratioP1;P1;durP2;ratioP2;P2;SDS_P1;SDS_P2;PMS_P1;PMS_P2;Temp;Humidity;BMP_temperature;BMP_pressure;BME280_temperature;BME280_humidity;BME280_pressure;Samples;Min_cycle;Max_cycle;Signal;HPM_P1;HPM_P2
2021/07/31 00:01:01;;;;;;;7.37;5.10;;;18.90;99.90;;;;;;5013353;28;20178;-68
2021/07/31 00:03:27;;;;;;;5.97;5.00;;;18.90;99.90;;;;;;5013362;28;20590;-67
2021/07/31 00:05:53;;;;;;;6.87;4.90;;;18.80;99.90;;;;;;5013173;28;20487;-67
2021/07/31 00:08:19;;;;;;;5.67;5.10;;;18.80;99.90;;;;;;5012442;28;20196;-69
2021/07/31 00:10:45;;;;;;;6.40;4.10;;;18.70;99.90;;;;;;5013004;28;20436;-68
2021/07/31 00:13:10;;;;;;;4.80;3.77;;;18.70;99.90;;;;;;5012763;28;20783;-68
2021/07/31 00:15:36;;;;;;;4.50;4.10;;;18.70;99.90;;;;;;5013252;28;20180;-68
2021/07/31 00:18:01;;;;;;;4.10;3.70;;;18.60;99.90;;;;;;5012762;28;20206;-68
2021/07/31 00:20:27;;;;;;;4.20;3.80;;;18.70;99.90;;;;;;5013264;28;20174;-67
2021/07/31 00:22:53;;;;;;;4.80;4.17;;;18.70;99.90;;;;;;5012073;28;20178;-68
2021/07/31 00:25:19;;;;;;;4.27;3.30;;;18.70;99.90;;;;;;5013106;28;20181;-67
2021/07/31 00:27:44;;;;;;;2.97;2.73;;;18.80;99.90;;;;;;5012639;28;20628;-68
2021/07/31 00:30:10;;;;;;;3.67;3.23;;;18.90;99.90;;;;;;5012621;28;20193;-66
2021/07/31 00:32:36;;;;;;;3.00;2.70;;;18.90;99.90;;;;;;5015742;28;20175;-66
2021/07/31 00:35:02;;;;;;;2.37;2.17;;;19.00;99.90;;;;;;5016908;28;20403;-68
2021/07/31 00:37:27;;;;;;;2.13;2.03;;;19.00;99.90;;;;;;5016026;28;20185;-67
2021/07/31 00:39:53;;;;;;;2.47;2.20;;;19.10;99.90;;;;;;5016317;28;20440;-67
2021/07/31 00:42:19;;;;;;;2.07;1.83;;;19.10;99.90;;;;;;5015970;28;20186;-68
2021/07/31 00:44:45;;;;;;;1.73;1.63;;;19.20;99.90;;;;;;5016460;28;20604;-68
2021/07/31 00:47:11;;;;;;;1.87;1.30;;;19.20;99.90;;;;;;5015974;28;20558;-66
2021/07/31 00:49:37;;;;;;;0.80;0.80;;;19.30;99.90;;;;;;5016223;28;20429;-67
2021/07/31 00:52:05;;;;;;;2.70;1.40;;;19.40;99.90;;;;;;5016577;28;20620;-67
2021/07/31 00:54:32;;;;;;;2.43;1.27;;;19.40;99.90;;;;;;5016816;28;20919;-67
2021/07/31 00:56:58;;;;;;;1.53;1.43;;;19.50;99.90;;;;;;5016049;28;20426;-67
2021/07/31 00:59:25;;;;;;;1.57;1.40;;;19.40;99.90;;;;;;5016356;28;20438;-67
2021/07/31 01:01:50;;;;;;;1.30;1.23;;;19.40;99.90;;;;;;5032293;28;20396;-67
2021/07/31 01:04:16;;;;;;;4.30;1.70;;;19.30;99.90;;;;;;5035894;28;20416;-68
2021/07/31 01:06:42;;;;;;;1.20;1.10;;;19.30;99.90;;;;;;5035434;28;20205;-67
2021/07/31 01:09:07;;;;;;;2.60;1.27;;;19.20;99.90;;;;;;5035715;28;20226;-68
2021/07/31 01:11:34;;;;;;;1.67;1.40;;;19.20;99.90;;;;;;5032315;28;20171;-69
2021/07/31 01:14:00;;;;;;;1.07;0.97;;;19.20;99.90;;;;;;5015992;28;20517;-68
2021/07/31 01:16:26;;;;;;;2.13;1.60;;;19.20;99.90;;;;;;5014731;28;20481;-68
2021/07/31 01:18:51;;;;;;;3.70;1.83;;;19.10;99.90;;;;;;5015484;28;20641;-68
2021/07/31 01:21:44;;;;;;;1.50;1.40;;;19.10;99.90;;;;;;5014766;28;20190;-68
2021/07/31 01:24:12;;;;;;;1.60;1.50;;;19.10;99.90;;;;;;5013762;28;20212;-68
2021/07/31 01:26:47;;;;;;;3.50;1.33;;;19.10;99.90;;;;;;5014988;28;20461;-69
2021/07/31 01:29:15;;;;;;;1.77;1.67;;;19.10;99.90;;;;;;5015773;28;20425;-68
2021/07/31 01:31:42;;;;;;;2.57;2.30;;;19.10;99.90;;;;;;5015678;28;20418;-68
2021/07/31 01:34:08;;;;;;;3.17;2.10;;;19.10;99.90;;;;;;5014367;28;20422;-66
2021/07/31 01:36:34;;;;;;;2.00;1.90;;;19.10;99.90;;;;;;5014143;28;20450;-72
2021/07/31 01:39:01;;;;;;;2.17;2.07;;;19.10;99.90;;;;;;5014866;28;20195;-67
2021/07/31 01:41:26;;;;;;;1.77;1.67;;;19.10;99.90;;;;;;5015533;28;20417;-66
2021/07/31 01:43:53;;;;;;;2.53;1.90;;;19.10;99.90;;;;;;5015367;28;20878;-67
2021/07/31 01:46:20;;;;;;;2.13;1.47;;;19.10;99.90;;;;;;5015392;28;20452;-68
2021/07/31 01:48:46;;;;;;;2.00;1.80;;;19.10;99.90;;;;;;5014498;28;20443;-67
2021/07/31 01:51:11;;;;;;;2.00;1.90;;;19.10;99.90;;;;;;5013926;28;20416;-67
2021/07/31 01:53:38;;;;;;;1.87;1.73;;;19.10;99.90;;;;;;5015159;28;20173;-67
2021/07/31 01:56:04;;;;;;;1.77;1.63;;;19.10;99.90;;;;;;5015353;28;20260;-66
2021/07/31 01:58:30;;;;;;;1.47;1.37;;;19.10;99.90;;;;;;5014695;28;20422;-67
2021/07/31 02:00:57;;;;;;;1.90;1.80;;;19.10;99.90;;;;;;5023566;28;20447;-67
2021/07/31 02:03:24;;;;;;;1.20;1.10;;;19.10;99.90;;;;;;5016779;28;20984;-67
2021/07/31 02:05:49;;;;;;;1.73;1.63;;;19.10;99.90;;;;;;5015018;28;20469;-68
2021/07/31 02:08:15;;;;;;;1.13;1.00;;;19.10;99.90;;;;;;5014414;28;20949;-67
2021/07/31 02:10:41;;;;;;;1.07;1.07;;;19.10;99.90;;;;;;5014954;28;20256;-67
2021/07/31 02:13:07;;;;;;;1.20;1.10;;;19.10;99.90;;;;;;5014895;28;20980;-67
2021/07/31 02:15:33;;;;;;;0.83;0.83;;;19.10;99.90;;;;;;5014947;28;20257;-69
2021/07/31 02:17:58;;;;;;;1.40;1.30;;;19.10;99.90;;;;;;5013902;28;20499;-67
2021/07/31 02:20:24;;;;;;;1.67;1.53;;;19.10;99.90;;;;;;5014709;28;20270;-67
2021/07/31 02:22:51;;;;;;;1.40;1.30;;;19.10;99.90;;;;;;5014726;28;20175;-67
2021/07/31 02:25:17;;;;;;;1.20;1.10;;;19.10;99.90;;;;;;5013325;28;20896;-67
2021/07/31 02:27:43;;;;;;;1.43;1.10;;;19.00;99.90;;;;;;5012857;28;20432;-68
2021/07/31 02:30:10;;;;;;;0.90;0.90;;;19.00;99.90;;;;;;5014469;28;20202;-68
2021/07/31 02:32:35;;;;;;;1.33;1.23;;;19.00;99.90;;;;;;5014138;28;20440;-67
2021/07/31 02:35:01;;;;;;;1.27;1.17;;;18.90;99.90;;;;;;5014414;28;20371;-68
2021/07/31 02:37:27;;;;;;;1.00;0.97;;;18.80;99.90;;;;;;5014013;28;20171;-67
2021/07/31 02:39:52;;;;;;;1.83;1.30;;;18.70;99.90;;;;;;5014143;28;20198;-68
2021/07/31 02:42:18;;;;;;;7.80;1.33;;;18.60;99.90;;;;;;5014609;28;20201;-67
2021/07/31 02:44:43;;;;;;;2.90;1.30;;;18.50;99.90;;;;;;5014361;28;20180;-68
2021/07/31 02:47:09;;;;;;;1.77;1.20;;;18.40;99.90;;;;;;5013805;28;20202;-68
2021/07/31 02:49:35;;;;;;;1.63;1.23;;;18.30;99.90;;;;;;5014182;28;20214;-67
2021/07/31 02:52:00;;;;;;;1.00;1.00;;;18.20;99.90;;;;;;5014178;28;20178;-68
2021/07/31 02:54:27;;;;;;;1.00;1.00;;;18.10;99.90;;;;;;5013821;28;20168;-68
2021/07/31 02:56:52;;;;;;;5.60;1.67;;;18.00;99.90;;;;;;5013936;28;20516;-67
2021/07/31 02:59:18;;;;;;;3.57;1.50;;;17.90;99.90;;;;;;5013949;28;20489;-68
2021/07/31 03:01:43;;;;;;;1.00;1.00;;;17.80;99.90;;;;;;5013825;28;20186;-69
2021/07/31 03:04:09;;;;;;;1.17;1.07;;;17.60;99.90;;;;;;5014716;28;20646;-68
2021/07/31 03:06:34;;;;;;;1.47;1.00;;;17.60;99.90;;;;;;5013509;28;20230;-68
2021/07/31 03:09:00;;;;;;;1.43;1.13;;;17.50;99.90;;;;;;5012465;28;20653;-68
2021/07/31 03:11:26;;;;;;;4.60;1.97;;;17.40;99.90;;;;;;5012812;28;20283;-68
2021/07/31 03:13:51;;;;;;;1.43;1.33;;;17.40;99.90;;;;;;5013968;28;20182;-70
2021/07/31 03:16:17;;;;;;;1.27;1.17;;;17.30;99.90;;;;;;5012943;28;20259;-69
2021/07/31 03:18:43;;;;;;;1.33;1.23;;;17.20;99.90;;;;;;5013179;28;20210;-69
2021/07/31 03:21:11;;;;;;;1.57;1.37;;;17.10;99.90;;;;;;5013738;28;20171;-68
2021/07/31 03:23:37;;;;;;;1.30;1.10;;;17.00;99.90;;;;;;5012519;28;20174;-68
2021/07/31 03:26:04;;;;;;;2.20;1.43;;;17.00;99.90;;;;;;5013628;28;20464;-68
2021/07/31 03:28:30;;;;;;;1.40;1.23;;;16.90;99.90;;;;;;5013147;28;20478;-68
2021/07/31 03:30:57;;;;;;;1.37;1.37;;;16.90;99.90;;;;;;5013039;28;20446;-68
2021/07/31 03:33:23;;;;;;;1.33;1.33;;;16.80;99.90;;;;;;5013602;28;20416;-69
2021/07/31 03:35:52;;;;;;;1.37;1.27;;;16.80;99.90;;;;;;5013555;28;20414;-68
2021/07/31 03:38:18;;;;;;;1.57;1.33;;;16.70;99.90;;;;;;5013080;28;20475;-68
2021/07/31 03:40:43;;;;;;;1.90;1.70;;;16.70;99.90;;;;;;5012423;28;20847;-69
2021/07/31 03:43:09;;;;;;;1.53;1.43;;;16.60;99.90;;;;;;5013508;28;20418;-68
2021/07/31 03:45:35;;;;;;;1.50;1.40;;;16.60;99.90;;;;;;5013118;28;20214;-68
2021/07/31 03:48:00;;;;;;;1.90;1.20;;;16.50;99.90;;;;;;5012967;28;20232;-68
2021/07/31 03:50:26;;;;;;;1.80;1.50;;;16.50;99.90;;;;;;5013509;28;20178;-68
2021/07/31 03:52:52;;;;;;;1.43;1.20;;;16.40;99.90;;;;;;5013382;28;20178;-67
2021/07/31 03:55:17;;;;;;;1.50;1.40;;;16.40;99.90;;;;;;5013307;28;20257;-68
2021/07/31 03:57:43;;;;;;;1.83;1.73;;;16.30;99.90;;;;;;5012912;28;20182;-68
2021/07/31 04:00:09;;;;;;;0.97;0.97;;;16.30;99.90;;;;;;5015269;28;20178;-69
2021/07/31 04:02:35;;;;;;;1.87;1.77;;;16.30;99.90;;;;;;5033235;28;20625;-71
2021/07/31 04:05:00;;;;;;;2.60;1.73;;;16.30;99.90;;;;;;5033082;28;20407;-70
2021/07/31 04:07:26;;;;;;;2.70;1.60;;;16.20;99.90;;;;;;5034883;28;20627;-68
2021/07/31 04:09:52;;;;;;;1.63;1.33;;;16.20;99.90;;;;;;5037065;28;20190;-69
2021/07/31 04:12:18;;;;;;;1.47;1.30;;;16.20;99.90;;;;;;5036983;28;20170;-69
2021/07/31 04:14:44;;;;;;;2.27;2.17;;;16.20;99.90;;;;;;5023620;28;20823;-68
2021/07/31 04:17:11;;;;;;;1.40;1.30;;;16.20;99.90;;;;;;5016641;28;20656;-69
2021/07/31 04:19:37;;;;;;;2.10;2.00;;;16.20;99.90;;;;;;5015321;28;20726;-68
2021/07/31 04:22:03;;;;;;;1.40;1.30;;;16.20;99.90;;;;;;5016990;28;20413;-68
2021/07/31 04:24:29;;;;;;;2.03;1.50;;;16.20;99.90;;;;;;5016978;28;20753;-70
2021/07/31 04:26:55;;;;;;;1.37;1.10;;;16.20;99.90;;;;;;5016509;28;20460;-69
2021/07/31 04:29:21;;;;;;;1.40;1.40;;;16.20;99.90;;;;;;5016357;28;20207;-68
2021/07/31 04:31:48;;;;;;;1.10;1.00;;;16.30;99.90;;;;;;5016924;28;20729;-67
2021/07/31 04:34:14;;;;;;;1.10;1.10;;;16.30;99.90;;;;;;5016998;28;20264;-67
2021/07/31 04:36:40;;;;;;;1.30;1.23;;;16.30;99.90;;;;;;5015209;28;20437;-69
2021/07/31 04:39:06;;;;;;;2.10;1.20;;;16.40;99.90;;;;;;5016166;28;20420;-67
2021/07/31 04:41:33;;;;;;;2.23;1.73;;;16.40;99.90;;;;;;5015395;28;20414;-69
2021/07/31 04:43:59;;;;;;;1.87;1.70;;;16.50;99.90;;;;;;5016480;28;20882;-68
2021/07/31 04:46:25;;;;;;;1.73;1.33;;;16.60;99.90;;;;;;5016105;28;20512;-69
2021/07/31 04:48:51;;;;;;;1.60;1.50;;;16.70;99.90;;;;;;5016065;28;20449;-68
2021/07/31 04:51:16;;;;;;;1.87;1.77;;;16.80;99.90;;;;;;5016465;28;20176;-68
2021/07/31 04:53:42;;;;;;;1.93;1.73;;;16.90;99.90;;;;;;5016453;28;20198;-68
2021/07/31 04:56:08;;;;;;;3.30;2.20;;;17.00;99.90;;;;;;5016305;28;20980;-69
2021/07/31 04:58:33;;;;;;;1.40;1.30;;;17.20;99.90;;;;;;5015806;28;20298;-67
2021/07/31 05:00:59;;;;;;;1.90;1.67;;;17.40;99.90;;;;;;5022567;28;20209;-68
2021/07/31 05:03:26;;;;;;;1.27;1.10;;;17.50;99.90;;;;;;5016185;28;20521;-69
2021/07/31 05:05:51;;;;;;;1.13;1.10;;;17.70;99.90;;;;;;5016020;28;20215;-68
2021/07/31 05:08:17;;;;;;;0.83;0.83;;;18.00;99.90;;;;;;5015570;28;20458;-69
2021/07/31 05:10:46;;;;;;;1.67;1.57;;;18.30;99.90;;;;;;5015868;28;20195;-69
2021/07/31 05:13:12;;;;;;;1.53;1.43;;;18.50;99.90;;;;;;5016029;28;20178;-69
2021/07/31 05:15:39;;;;;;;0.90;0.90;;;18.70;99.90;;;;;;5015586;28;20400;-67
2021/07/31 05:18:06;;;;;;;0.83;0.83;;;18.80;99.90;;;;;;5014872;28;20468;-69
2021/07/31 05:20:33;;;;;;;1.30;1.20;;;18.90;99.90;;;;;;5016026;28;20801;-68
2021/07/31 05:22:59;;;;;;;2.00;1.70;;;19.00;99.90;;;;;;5016026;28;20406;-68
2021/07/31 05:25:25;;;;;;;2.13;1.97;;;19.10;99.90;;;;;;5015806;28;20406;-68
2021/07/31 05:27:51;;;;;;;1.23;1.00;;;19.20;99.90;;;;;;5015270;28;20900;-68
2021/07/31 05:30:17;;;;;;;2.33;1.60;;;19.10;99.90;;;;;;5015162;28;20432;-70
2021/07/31 05:32:42;;;;;;;2.43;1.07;;;19.10;99.90;;;;;;5015304;28;20491;-68
2021/07/31 05:35:09;;;;;;;1.70;1.27;;;19.10;99.90;;;;;;5015721;28;20497;-68
2021/07/31 05:37:34;;;;;;;2.03;1.30;;;19.20;99.90;;;;;;5015072;28;20225;-69
2021/07/31 05:40:01;;;;;;;0.77;0.77;;;19.20;99.90;;;;;;5015552;28;20406;-70
2021/07/31 05:42:27;;;;;;;2.23;1.20;;;19.30;99.90;;;;;;5015555;28;20183;-68
2021/07/31 05:45:03;;;;;;;12.80;1.70;;;19.30;99.90;;;;;;5015339;28;20458;-69
2021/07/31 05:47:29;;;;;;;2.27;1.13;;;19.40;99.90;;;;;;4995385;28;20470;-69
2021/07/31 05:49:59;;;;;;;1.77;1.67;;;19.40;99.90;;;;;;4995758;28;20422;-69
2021/07/31 05:52:26;;;;;;;1.00;1.00;;;19.40;99.90;;;;;;4994325;28;20465;-69
2021/07/31 05:54:52;;;;;;;5.20;1.00;;;19.50;99.90;;;;;;4995708;28;20530;-68
2021/07/31 05:57:19;;;;;;;1.20;1.10;;;19.50;99.90;;;;;;4994927;28;20411;-68
2021/07/31 05:59:44;;;;;;;1.63;1.20;;;19.60;99.90;;;;;;5004242;28;20445;-69
2021/07/31 06:02:10;;;;;;;1.37;1.00;;;19.60;99.90;;;;;;5032724;28;20417;-69
2021/07/31 06:04:37;;;;;;;1.07;0.97;;;19.60;99.90;;;;;;5034859;28;20310;-68
2021/07/31 06:07:06;;;;;;;2.00;1.40;;;19.70;99.90;;;;;;5027636;28;20203;-68
2021/07/31 06:09:33;;;;;;;1.30;1.20;;;19.80;99.90;;;;;;5014997;28;20434;-65
2021/07/31 06:11:58;;;;;;;0.80;0.80;;;19.80;99.90;;;;;;5013682;28;20433;-66
2021/07/31 06:14:24;;;;;;;1.50;1.40;;;19.90;99.90;;;;;;5014820;28;20410;-68
2021/07/31 06:16:50;;;;;;;0.80;0.80;;;19.80;99.90;;;;;;5014312;28;20182;-68
2021/07/31 06:19:16;;;;;;;1.93;0.97;;;19.80;99.90;;;;;;5014570;28;20408;-71
2021/07/31 06:21:41;;;;;;;1.17;1.07;;;19.70;99.90;;;;;;5015136;28;20266;-67
2021/07/31 06:24:07;;;;;;;1.20;1.10;;;19.80;99.90;;;;;;5014426;28;20245;-67
2021/07/31 06:26:34;;;;;;;3.53;1.23;;;19.80;99.90;;;;;;5013935;28;20568;-67
2021/07/31 06:29:00;;;;;;;1.60;1.07;;;20.00;99.90;;;;;;5013881;28;20244;-67
2021/07/31 06:31:26;;;;;;;1.90;1.80;;;20.10;99.90;;;;;;5014256;28;20434;-68
2021/07/31 06:33:51;;;;;;;1.27;1.17;;;20.10;99.90;;;;;;5014253;28;20171;-69
2021/07/31 06:36:19;;;;;;;1.90;1.80;;;20.10;99.90;;;;;;5014096;28;20251;-69
2021/07/31 06:38:45;;;;;;;6.73;0.97;;;20.30;99.90;;;;;;5012720;28;20199;-67
2021/07/31 06:41:11;;;;;;;5.80;1.50;;;20.40;99.90;;;;;;5013685;28;20765;-70
2021/07/31 06:43:37;;;;;;;1.43;1.30;;;20.60;99.90;;;;;;5013087;28;20415;-74
2021/07/31 06:46:09;;;;;;;2.30;1.27;;;21.00;99.90;;;;;;5012746;28;20626;-72
2021/07/31 06:48:35;;;;;;;1.23;1.07;;;21.20;99.90;;;;;;5012556;28;20291;-69
2021/07/31 06:51:01;;;;;;;1.40;1.30;;;21.30;99.90;;;;;;5012042;28;20837;-68
2021/07/31 06:53:27;;;;;;;1.33;1.20;;;21.40;99.90;;;;;;4993735;28;20182;-70
2021/07/31 06:55:53;;;;;;;1.70;0.80;;;21.50;99.90;;;;;;4993790;28;20502;-65
2021/07/31 06:58:18;;;;;;;2.70;1.50;;;21.60;99.90;;;;;;4993351;28;20197;-65
2021/07/31 07:00:44;;;;;;;2.77;1.37;;;21.60;99.90;;;;;;5007973;28;20182;-67
2021/07/31 07:03:09;;;;;;;2.30;1.93;;;21.50;99.90;;;;;;5033795;28;20170;-67
2021/07/31 07:05:35;;;;;;;1.10;1.00;;;21.40;99.90;;;;;;5033530;28;20189;-66
2021/07/31 07:08:00;;;;;;;1.67;1.20;;;21.40;99.90;;;;;;5014226;28;20203;-67
2021/07/31 07:10:26;;;;;;;4.20;3.17;;;21.50;99.90;;;;;;5013850;28;20173;-67
2021/07/31 07:12:52;;;;;;;3.60;1.30;;;21.60;99.90;;;;;;5013745;28;20257;-67
2021/07/31 07:15:17;;;;;;;1.27;1.10;;;21.70;99.90;;;;;;5013831;28;20254;-68
2021/07/31 07:17:43;;;;;;;1.93;1.83;;;21.90;99.20;;;;;;5013336;28;20239;-66
2021/07/31 07:20:09;;;;;;;1.10;1.00;;;22.00;99.10;;;;;;5013617;28;20181;-67
2021/07/31 07:22:34;;;;;;;2.50;1.53;;;22.10;99.00;;;;;;5013377;28;20197;-68
2021/07/31 07:25:00;;;;;;;2.10;1.17;;;22.20;98.80;;;;;;5013988;28;20425;-65
2021/07/31 07:27:26;;;;;;;0.80;0.80;;;;;;;;;;5013198;28;20225;-65
2021/07/31 07:29:52;;;;;;;3.90;2.30;;;22.20;97.00;;;;;;5013182;28;20589;-64
2021/07/31 07:32:17;;;;;;;1.97;1.37;;;22.30;97.80;;;;;;5013143;28;20395;-64
2021/07/31 07:34:43;;;;;;;1.50;1.40;;;22.50;97.00;;;;;;5013666;28;20175;-65
2021/07/31 07:37:08;;;;;;;5.37;1.30;;;22.80;96.70;;;;;;5012598;28;20699;-66
2021/07/31 07:39:34;;;;;;;1.37;1.27;;;23.20;96.00;;;;;;5013326;28;20247;-64
2021/07/31 07:42:03;;;;;;;1.40;1.23;;;23.60;95.40;;;;;;5016855;28;20580;-65
2021/07/31 07:44:28;;;;;;;1.23;1.07;;;23.80;94.70;;;;;;5017469;28;20537;-67
2021/07/31 07:46:54;;;;;;;1.30;1.20;;;24.20;94.20;;;;;;5017148;28;20446;-64
2021/07/31 07:49:20;;;;;;;1.57;1.10;;;24.80;93.60;;;;;;5017282;28;20208;-63
2021/07/31 07:51:45;;;;;;;2.60;1.70;;;25.70;92.90;;;;;;5016764;28;20391;-61
2021/07/31 07:54:11;;;;;;;1.73;1.10;;;26.80;91.10;;;;;;5017175;28;20179;-63
2021/07/31 07:56:36;;;;;;;2.37;2.17;;;28.10;88.50;;;;;;5016715;28;20208;-66
2021/07/31 07:59:03;;;;;;;3.33;1.93;;;29.00;79.90;;;;;;5017293;28;20537;-64
2021/07/31 08:01:31;;;;;;;2.67;2.47;;;29.60;79.30;;;;;;5017387;28;20171;-63
2021/07/31 08:03:57;;;;;;;8.33;1.40;;;30.30;75.60;;;;;;5017359;28;20883;-63
2021/07/31 08:06:22;;;;;;;1.00;1.00;;;31.20;73.10;;;;;;5017172;28;20563;-64
2021/07/31 08:08:48;;;;;;;1.30;1.20;;;32.20;70.40;;;;;;5016637;28;20483;-65
2021/07/31 08:11:14;;;;;;;2.33;2.13;;;33.10;65.30;;;;;;5016765;28;20179;-65
2021/07/31 08:13:39;;;;;;;1.53;1.43;;;33.90;63.80;;;;;;5017080;28;20178;-65
2021/07/31 08:16:06;;;;;;;1.23;1.23;;;34.90;60.20;;;;;;5016684;28;20179;-65
2021/07/31 08:18:31;;;;;;;2.30;2.10;;;35.40;57.90;;;;;;5016883;28;20257;-65
2021/07/31 08:20:57;;;;;;;1.93;1.73;;;35.70;56.40;;;;;;5016561;28;20433;-65
2021/07/31 08:23:23;;;;;;;1.70;1.60;;;35.80;55.40;;;;;;5027849;28;20190;-64
2021/07/31 08:25:48;;;;;;;1.40;1.40;;;35.80;55.50;;;;;;5016518;28;20225;-64
2021/07/31 08:28:14;;;;;;;1.10;1.10;;;36.30;55.40;;;;;;5016221;28;20223;-62
2021/07/31 08:30:40;;;;;;;1.40;1.30;;;36.00;53.00;;;;;;5016593;28;20272;-64
2021/07/31 08:33:05;;;;;;;1.80;1.70;;;35.80;54.90;;;;;;5016907;28;20175;-64
2021/07/31 08:35:31;;;;;;;1.50;1.50;;;36.10;53.10;;;;;;5016806;28;20537;-64
2021/07/31 08:37:56;;;;;;;3.53;1.53;;;36.40;52.60;;;;;;5016153;28;20273;-63
2021/07/31 08:40:26;;;;;;;1.90;1.53;;;36.20;52.80;;;;;;5031339;28;20261;-65
2021/07/31 08:42:51;;;;;;;3.23;2.10;;;36.00;52.60;;;;;;5035048;28;20641;-64
2021/07/31 08:45:17;;;;;;;1.30;1.30;;;35.70;53.30;;;;;;5035853;28;20511;-63
2021/07/31 08:47:45;;;;;;;2.30;1.30;;;35.90;52.40;;;;;;5035505;28;20256;-62
2021/07/31 08:50:11;;;;;;;2.53;1.60;;;35.50;51.70;;;;;;5035966;28;20242;-65
2021/07/31 08:52:39;;;;;;;2.43;1.40;;;35.30;52.30;;;;;;5034512;28;20420;-62
2021/07/31 08:55:05;;;;;;;2.70;2.50;;;34.70;52.60;;;;;;5036116;28;20923;-62
2021/07/31 08:57:31;;;;;;;3.20;2.90;;;34.50;53.00;;;;;;5035745;28;20440;-63
2021/07/31 08:59:57;;;;;;;4.20;1.37;;;33.70;54.00;;;;;;5035696;28;20336;-64
2021/07/31 09:02:22;;;;;;;1.23;1.23;;;33.50;52.90;;;;;;5035977;28;20586;-65
2021/07/31 09:04:52;;;;;;;1.50;1.40;;;32.70;54.00;;;;;;5035906;28;20173;-65
2021/07/31 09:07:18;;;;;;;1.87;1.57;;;31.60;55.60;;;;;;5016602;28;20241;-64
2021/07/31 09:09:46;;;;;;;1.77;1.50;;;30.80;56.60;;;;;;5015831;28;20461;-65
2021/07/31 09:12:11;;;;;;;1.57;1.00;;;30.10;57.00;;;;;;5015880;28;20175;-64
2021/07/31 09:14:45;;;;;;;2.13;1.80;;;29.50;59.20;;;;;;5015625;28;20756;-64
2021/07/31 09:17:25;;;;;;;1.30;1.20;;;28.60;61.30;;;;;;5015451;28;20167;-64
2021/07/31 09:19:52;;;;;;;2.60;1.50;;;28.40;64.70;;;;;;5017176;28;20495;-63
2021/07/31 09:22:18;;;;;;;1.30;1.27;;;28.40;63.50;;;;;;5035436;28;20409;-65
2021/07/31 09:24:43;;;;;;;1.43;1.23;;;28.40;65.70;;;;;;5035266;28;20396;-64
2021/07/31 09:27:25;;;;;;;2.20;1.53;;;28.60;64.50;;;;;;5034641;28;20304;-64
2021/07/31 09:30:04;;;;;;;1.37;1.33;;;29.10;62.50;;;;;;5032840;28;20197;-64
2021/07/31 09:32:42;;;;;;;1.53;1.43;;;29.10;61.60;;;;;;5008496;28;20392;-64
2021/07/31 09:35:21;;;;;;;1.27;1.27;;;29.00;62.30;;;;;;5021304;28;20414;-66
2021/07/31 09:37:49;;;;;;;1.53;1.33;;;28.70;63.30;;;;;;5034988;28;20810;-63
2021/07/31 09:40:25;;;;;;;1.07;1.07;;;28.80;64.80;;;;;;5034933;28;20395;-64
2021/07/31 09:42:51;;;;;;;5.33;1.73;;;29.70;64.60;;;;;;5035103;28;20380;-64
2021/07/31 09:45:19;;;;;;;1.80;1.70;;;30.60;60.00;;;;;;5035105;28;20889;-64
2021/07/31 09:48:02;;;;;;;1.77;1.40;;;31.50;60.60;;;;;;5034465;28;20292;-63
2021/07/31 09:50:43;;;;;;;1.20;1.20;;;32.00;58.60;;;;;;5024237;28;20429;-64
2021/07/31 09:53:13;;;;;;;1.90;1.80;;;31.90;56.70;;;;;;5015287;28;20385;-63
2021/07/31 09:55:47;;;;;;;2.77;2.30;;;31.60;57.20;;;;;;5015246;28;20410;-64
2021/07/31 09:58:20;;;;;;;1.70;1.37;;;32.00;57.60;;;;;;5013348;28;20458;-64
2021/07/31 10:00:47;;;;;;;1.90;1.80;;;31.70;56.60;;;;;;5022564;28;20754;-64
2021/07/31 10:03:14;;;;;;;1.30;1.20;;;31.20;57.20;;;;;;5034641;28;20740;-64
2021/07/31 10:05:42;;;;;;;1.70;1.60;;;30.30;57.90;;;;;;5034054;28;20396;-63
2021/07/31 10:08:09;;;;;;;1.40;1.30;;;30.10;59.30;;;;;;5034117;28;20412;-63
2021/07/31 10:10:35;;;;;;;1.83;1.00;;;30.40;60.30;;;;;;5034504;28;20376;-64
2021/07/31 10:13:02;;;;;;;1.30;1.20;;;31.20;59.40;;;;;;5034536;28;20399;-63
2021/07/31 10:15:27;;;;;;;1.60;1.50;;;32.00;59.20;;;;;;5034497;28;20170;-64
2021/07/31 10:17:53;;;;;;;1.70;1.60;;;32.80;58.50;;;;;;5034274;28;20764;-62
2021/07/31 10:20:27;;;;;;;1.63;1.30;;;33.50;56.50;;;;;;5014299;28;20515;-63
2021/07/31 10:22:53;;;;;;;1.47;1.37;;;34.20;54.40;;;;;;5002163;28;20443;-63
2021/07/31 10:25:23;;;;;;;1.20;1.20;;;34.70;53.00;;;;;;5004885;28;20417;-64
2021/07/31 10:27:50;;;;;;;1.70;1.60;;;34.70;52.50;;;;;;5002447;28;20460;-66
2021/07/31 10:30:35;;;;;;;1.67;1.57;;;34.10;52.70;;;;;;5004465;28;20454;-65
2021/07/31 10:33:02;;;;;;;1.23;1.20;;;33.30;53.60;;;;;;5004948;28;20410;-64
2021/07/31 10:35:27;;;;;;;2.83;1.87;;;32.50;55.00;;;;;;5005719;28;20426;-65
2021/07/31 10:37:55;;;;;;;1.60;1.50;;;32.20;54.90;;;;;;5002685;28;20591;-68
2021/07/31 10:40:30;;;;;;;1.80;1.70;;;32.40;56.40;;;;;;5002095;28;20189;-63
2021/07/31 10:42:55;;;;;;;2.20;1.73;;;32.40;56.20;;;;;;5001860;28;20444;-67
2021/07/31 10:45:30;;;;;;;1.60;1.50;;;32.50;53.60;;;;;;4996309;28;20439;-64
2021/07/31 10:48:17;;;;;;;1.50;1.40;;;32.20;54.70;;;;;;4993974;28;20310;-64
2021/07/31 10:50:43;;;;;;;1.67;1.57;;;31.70;54.40;;;;;;4994462;28;20481;-62
2021/07/31 10:53:11;;;;;;;1.30;1.20;;;31.60;55.60;;;;;;4994607;28;20407;-65
2021/07/31 10:55:36;;;;;;;1.10;1.10;;;31.80;54.50;;;;;;4994491;28;20175;-64
2021/07/31 10:58:05;;;;;;;1.43;1.30;;;31.70;53.60;;;;;;5019180;28;21009;-64
2021/07/31 11:00:34;;;;;;;1.23;1.23;;;31.70;53.40;;;;;;5033567;28;20174;-64
2021/07/31 11:03:04;;;;;;;1.50;1.40;;;31.80;54.40;;;;;;5016406;28;20410;-63
2021/07/31 11:06:06;;;;;;;1.40;1.30;;;32.10;53.60;;;;;;4994060;28;20399;-65
2021/07/31 11:08:33;;;;;;;1.53;1.10;;;32.30;54.20;;;;;;4994244;28;20442;-64
2021/07/31 11:11:25;;;;;;;1.63;1.53;;;32.90;54.30;;;;;;4994010;28;20766;-63
2021/07/31 11:13:54;;;;;;;1.37;1.20;;;32.60;52.30;;;;;;4994041;28;20442;-64
2021/07/31 11:16:22;;;;;;;1.13;1.03;;;31.90;52.60;;;;;;4993504;28;20410;-64
2021/07/31 11:18:54;;;;;;;0.80;0.80;;;31.40;54.50;;;;;;4993332;28;20422;-64
2021/07/31 11:21:19;;;;;;;1.37;1.03;;;30.60;54.00;;;;;;5018053;28;20981;-66
2021/07/31 11:24:07;;;;;;;1.27;1.20;;;29.70;55.80;;;;;;5032999;28;20405;-66
2021/07/31 11:26:43;;;;;;;1.70;1.60;;;28.90;57.00;;;;;;5032798;28;20210;-66
2021/07/31 11:29:28;;;;;;;1.17;1.07;;;28.10;57.60;;;;;;5033206;28;20436;-63
2021/07/31 11:32:16;;;;;;;1.37;1.27;;;27.40;57.60;;;;;;5031978;28;20403;-64
2021/07/31 11:34:44;;;;;;;1.57;1.30;;;26.60;60.20;;;;;;5007576;28;20410;-63
2021/07/31 11:37:11;;;;;;;1.00;1.00;;;26.50;63.80;;;;;;5012647;28;20414;-64
2021/07/31 11:39:39;;;;;;;1.33;1.23;;;26.50;65.00;;;;;;5008985;28;20430;-63
2021/07/31 11:42:06;;;;;;;1.83;1.50;;;26.50;63.70;;;;;;5003400;28;20383;-63
2021/07/31 11:44:33;;;;;;;3.63;1.00;;;26.50;62.30;;;;;;5006824;28;20391;-63
2021/07/31 11:47:00;;;;;;;1.47;1.30;;;26.40;63.10;;;;;;5002242;28;20432;-64
2021/07/31 11:49:37;;;;;;;1.40;1.30;;;26.30;63.60;;;;;;5032616;28;20446;-63
2021/07/31 11:52:07;;;;;;;2.00;1.40;;;26.10;64.70;;;;;;5033048;28;20884;-63
2021/07/31 11:54:37;;;;;;;1.93;1.40;;;26.00;65.60;;;;;;5032660;28;20388;-62
2021/07/31 11:57:03;;;;;;;1.67;1.27;;;25.70;62.90;;;;;;5032572;28;20488;-63
2021/07/31 11:59:32;;;;;;;1.40;1.30;;;25.40;63.70;;;;;;5033026;28;20508;-63
2021/07/31 12:01:58;;;;;;;2.87;1.30;;;25.30;64.90;;;;;;5032281;28;20500;-63
2021/07/31 12:04:50;;;;;;;2.20;1.17;;;25.30;67.10;;;;;;5032570;28;20459;-63
2021/07/31 12:07:26;;;;;;;1.30;1.20;;;25.20;66.70;;;;;;5032449;28;21015;-64
2021/07/31 12:10:05;;;;;;;1.83;1.20;;;25.10;66.10;;;;;;5032978;28;20399;-64
2021/07/31 12:12:33;;;;;;;1.50;1.40;;;25.10;68.20;;;;;;5033067;28;20391;-65
2021/07/31 12:15:08;;;;;;;1.43;1.33;;;25.20;68.50;;;;;;5032980;28;20416;-65
2021/07/31 12:17:34;;;;;;;1.77;1.20;;;25.30;69.60;;;;;;5019482;28;20433;-65
2021/07/31 12:20:00;;;;;;;1.90;1.33;;;25.40;69.50;;;;;;5013209;28;20897;-65
2021/07/31 12:22:28;;;;;;;2.17;2.07;;;25.60;66.70;;;;;;5013138;28;20424;-65
2021/07/31 12:25:15;;;;;;;2.27;2.07;;;25.60;67.80;;;;;;5013001;28;20185;-64
2021/07/31 12:27:53;;;;;;;4.23;1.77;;;25.50;68.40;;;;;;5013324;28;21025;-65
2021/07/31 12:30:28;;;;;;;6.50;4.67;;;25.30;66.80;;;;;;5016373;28;20411;-64
2021/07/31 12:33:06;;;;;;;4.33;1.90;;;25.40;70.30;;;;;;5032446;28;20908;-64
2021/07/31 12:35:45;;;;;;;1.20;1.10;;;25.60;70.40;;;;;;5036254;28;20376;-64
2021/07/31 12:38:21;;;;;;;1.23;1.23;;;25.70;67.60;;;;;;5035922;28;20431;-66
2021/07/31 12:41:01;;;;;;;3.80;1.30;;;25.90;64.10;;;;;;5035045;28;20768;-63
2021/07/31 12:43:29;;;;;;;1.20;1.20;;;26.00;64.00;;;;;;5036302;28;20402;-63
2021/07/31 12:45:58;;;;;;;1.47;1.37;;;26.00;66.30;;;;;;5031646;28;20942;-63
2021/07/31 12:48:23;;;;;;;1.10;1.10;;;25.90;65.20;;;;;;5016077;28;20408;-63
2021/07/31 12:50:49;;;;;;;1.27;1.20;;;26.00;66.80;;;;;;5015032;28;20972;-63